createdAt,value
2023-03-30T00:02:07.110Z,96.33
2023-03-30T00:04:41.114Z,96.42
2023-03-30T00:07:15.434Z,96.53
2023-03-30T00:09:47.317Z,96.55
2023-03-30T00:12:21.093Z,96.73
2023-03-30T00:14:54.470Z,96.96
2023-03-30T00:17:28.539Z,96.87
2023-03-30T00:20:03.072Z,97.07
2023-03-30T00:22:36.796Z,97.11
2023-03-30T00:25:12.560Z,97.06
2023-03-30T00:27:46.686Z,97.05
2023-03-30T00:30:21.277Z,97.00
2023-03-30T00:32:54.468Z,96.87
2023-03-30T00:35:29.486Z,96.87
2023-03-30T00:38:03.766Z,96.54
2023-03-30T00:40:38.673Z,96.64
2023-03-30T00:43:14.425Z,96.95
2023-03-30T00:45:47.968Z,97.17
2023-03-30T00:48:37.576Z,97.23
2023-03-30T00:51:12.851Z,97.59
2023-03-30T00:53:51.403Z,97.80
2023-03-30T00:56:28.275Z,98.05
2023-03-30T00:59:02.996Z,98.15
2023-03-30T01:01:38.317Z,97.95
2023-03-30T01:04:13.454Z,98.10
2023-03-30T01:06:47.813Z,98.01
2023-03-30T01:09:23.055Z,97.90
2023-03-30T01:11:57.360Z,97.98
2023-03-30T01:14:30.535Z,98.00
2023-03-30T01:17:23.865Z,98.16
2023-03-30T01:20:18.973Z,98.00
2023-03-30T01:23:28.531Z,98.42
2023-03-30T01:26:28.277Z,98.55
2023-03-30T01:29:08.763Z,98.61
2023-03-30T01:31:59.570Z,98.58
2023-03-30T01:35:13.395Z,98.53
2023-03-30T01:38:21.691Z,98.42
2023-03-30T01:41:15.798Z,98.56
2023-03-30T01:43:53.244Z,98.21
2023-03-30T01:46:48.903Z,98.33
2023-03-30T01:49:35.500Z,98.38
2023-03-30T01:52:41.542Z,98.40
2023-03-30T01:55:24.940Z,98.35
2023-03-30T01:58:21.223Z,98.60
2023-03-30T02:00:55.417Z,98.30
2023-03-30T02:03:32.861Z,98.27
2023-03-30T02:06:24.110Z,98.54
2023-03-30T02:09:01.167Z,98.55
2023-03-30T02:11:34.887Z,98.56
2023-03-30T02:14:09.538Z,98.67
2023-03-30T02:16:47.933Z,98.58
2023-03-30T02:19:22.215Z,98.33
2023-03-30T02:21:56.608Z,98.25
2023-03-30T02:24:31.951Z,98.56
2023-03-30T02:27:05.559Z,98.45
2023-03-30T02:29:43.088Z,98.49
2023-03-30T02:32:26.293Z,98.46
2023-03-30T02:35:22.740Z,98.41
2023-03-30T02:38:15.508Z,98.34
2023-03-30T02:41:36.151Z,98.46
2023-03-30T02:44:31.792Z,98.16
2023-03-30T02:47:14.171Z,97.99
2023-03-30T02:49:57.284Z,98.21
2023-03-30T02:52:53.303Z,97.97
2023-03-30T02:55:56.288Z,97.97
2023-03-30T02:58:38.656Z,98.08
2023-03-30T03:01:38.800Z,98.21
2023-03-30T03:04:15.857Z,97.96
2023-03-30T03:06:53.304Z,98.03
2023-03-30T03:09:26.254Z,98.03
2023-03-30T03:11:59.339Z,97.93
2023-03-30T03:14:34.512Z,97.97
2023-03-30T03:17:07.788Z,97.72
2023-03-30T03:19:42.526Z,97.76
2023-03-30T03:22:16.085Z,97.92
2023-03-30T03:24:49.298Z,98.07
2023-03-30T03:27:40.767Z,98.17
2023-03-30T03:30:15.505Z,98.02
2023-03-30T03:32:52.224Z,98.17
2023-03-30T03:35:25.558Z,98.41
2023-03-30T03:37:58.967Z,98.47
2023-03-30T03:40:32.629Z,98.77
2023-03-30T03:43:06.724Z,98.67
2023-03-30T03:45:40.418Z,98.77
2023-03-30T03:48:15.053Z,98.86
2023-03-30T03:50:59.258Z,98.86
2023-03-30T03:53:35.195Z,98.79
2023-03-30T03:56:11.859Z,98.68
2023-03-30T03:58:45.602Z,98.69
2023-03-30T04:01:20.697Z,98.85
2023-03-30T04:03:53.291Z,98.51
2023-03-30T04:06:27.489Z,98.58
2023-03-30T04:08:59.533Z,98.56
2023-03-30T04:11:34.109Z,98.85
2023-03-30T04:14:27.456Z,99.04
2023-03-30T04:17:15.074Z,99.42
2023-03-30T04:20:04.774Z,99.45
2023-03-30T04:22:42.867Z,99.22
2023-03-30T04:25:29.433Z,99.24
2023-03-30T04:28:12.034Z,98.96
2023-03-30T04:30:46.580Z,98.73
2023-03-30T04:33:28.411Z,98.85
2023-03-30T04:36:07.270Z,98.83
2023-03-30T04:38:44.860Z,98.74
2023-03-30T04:41:19.274Z,98.74
2023-03-30T04:43:54.710Z,98.80
2023-03-30T04:46:47.843Z,98.96
2023-03-30T04:49:26.090Z,98.66
2023-03-30T04:52:09.646Z,98.66
2023-03-30T04:55:03.165Z,98.65
2023-03-30T04:57:54.718Z,98.62
2023-03-30T05:00:42.475Z,98.82
2023-03-30T05:03:34.884Z,98.90
2023-03-30T05:06:13.248Z,98.86
2023-03-30T05:08:53.908Z,98.96
2023-03-30T05:11:46.212Z,99.06
2023-03-30T05:14:38.224Z,99.20
2023-03-30T05:17:29.641Z,99.45
2023-03-30T05:20:11.468Z,99.57
2023-03-30T05:23:04.366Z,99.43
2023-03-30T05:25:55.846Z,99.56
2023-03-30T05:28:48.106Z,99.65
2023-03-30T05:31:25.654Z,99.67
2023-03-30T05:34:20.034Z,99.72
2023-03-30T05:36:58.140Z,99.85
2023-03-30T05:39:40.665Z,100.00
2023-03-30T05:42:27.534Z,100.00
2023-03-30T05:45:19.715Z,100.00
2023-03-30T05:48:03.694Z,100.00
2023-03-30T05:50:53.857Z,100.00
2023-03-30T05:53:38.037Z,100.00
2023-03-30T05:56:18.809Z,100.00
2023-03-30T05:58:59.882Z,100.00
2023-03-30T06:01:47.185Z,100.00
2023-03-30T06:04:21.118Z,100.00
2023-03-30T06:06:54.454Z,100.00
2023-03-30T06:09:28.263Z,100.00
2023-03-30T06:12:02.817Z,100.00
2023-03-30T06:14:36.394Z,100.00
2023-03-30T06:17:27.594Z,100.00
2023-03-30T06:20:01.519Z,100.00
2023-03-30T06:22:36.648Z,100.00
2023-03-30T06:25:13.927Z,100.00
2023-03-30T06:27:47.876Z,100.00
2023-03-30T06:30:21.661Z,100.00
2023-03-30T06:32:56.724Z,100.00
2023-03-30T06:35:33.179Z,100.00
2023-03-30T06:38:06.237Z,100.00
2023-03-30T06:40:40.361Z,100.00
2023-03-30T06:43:18.445Z,100.00
2023-03-30T06:45:57.566Z,100.00
2023-03-30T06:48:32.291Z,100.00
2023-03-30T06:51:22.741Z,100.00
2023-03-30T06:53:55.729Z,100.00
2023-03-30T06:56:28.721Z,100.00
2023-03-30T06:59:07.287Z,100.00
2023-03-30T07:01:42.003Z,100.00
2023-03-30T07:04:16.539Z,100.00
2023-03-30T07:06:52.468Z,100.00
2023-03-30T07:09:26.736Z,100.00
2023-03-30T07:12:00.341Z,100.00
2023-03-30T07:14:33.928Z,100.00
2023-03-30T07:17:08.085Z,100.00
2023-03-30T07:19:43.060Z,100.00
2023-03-30T07:22:18.427Z,100.00
2023-03-30T07:24:51.535Z,100.00
2023-03-30T07:27:25.618Z,100.00
2023-03-30T07:30:10.187Z,100.00
2023-03-30T07:32:36.735Z,100.00
2023-03-30T07:35:11.918Z,100.00
2023-03-30T07:37:45.358Z,100.00
2023-03-30T07:40:18.997Z,100.00
2023-03-30T07:42:52.848Z,100.00
2023-03-30T07:45:25.915Z,100.00
2023-03-30T07:47:59.222Z,100.00
2023-03-30T07:50:32.607Z,100.00
2023-03-30T07:53:07.221Z,100.00
2023-03-30T07:55:42.674Z,100.00
2023-03-30T07:58:17.515Z,100.00
2023-03-30T08:00:50.987Z,100.00
2023-03-30T08:03:43.985Z,100.00
2023-03-30T08:06:17.131Z,100.00
2023-03-30T08:08:52.081Z,100.00
2023-03-30T08:11:25.022Z,100.00
2023-03-30T08:13:57.884Z,100.00
2023-03-30T08:16:31.275Z,100.00
2023-03-30T08:19:04.129Z,100.00
2023-03-30T08:21:37.521Z,100.00
2023-03-30T08:24:10.823Z,100.00
2023-03-30T08:26:45.971Z,100.00
2023-03-30T08:29:19.289Z,100.00
2023-03-30T08:31:54.237Z,100.00
2023-03-30T08:34:27.824Z,100.00
2023-03-30T08:37:00.823Z,100.00
2023-03-30T08:39:34.029Z,100.00
2023-03-30T08:42:37.748Z,100.00
2023-03-30T08:45:12.568Z,100.00
2023-03-30T08:47:50.162Z,100.00
2023-03-30T08:50:37.822Z,100.00
2023-03-30T08:53:12.694Z,100.00
2023-03-30T08:55:50.299Z,100.00
2023-03-30T08:58:39.468Z,100.00
2023-03-30T09:01:31.751Z,100.00
2023-03-30T09:04:30.329Z,100.00
2023-03-30T09:07:10.513Z,100.00
2023-03-30T09:09:49.063Z,100.00
2023-03-30T09:12:33.898Z,100.00
2023-03-30T09:15:29.002Z,100.00
2023-03-30T09:18:28.437Z,100.00
2023-03-30T09:21:06.710Z,100.00
2023-03-30T09:23:41.778Z,100.00
2023-03-30T09:26:28.967Z,100.00
2023-03-30T09:29:21.512Z,100.00
2023-03-30T09:32:17.787Z,100.00
2023-03-30T09:35:04.520Z,100.00
2023-03-30T09:37:38.396Z,100.00
2023-03-30T09:40:40.022Z,100.00
2023-03-30T09:43:47.682Z,100.00
2023-03-30T09:46:20.882Z,100.00
2023-03-30T09:48:54.280Z,100.00
2023-03-30T09:51:31.475Z,100.00
2023-03-30T09:54:07.402Z,100.00
2023-03-30T09:56:45.268Z,100.00
2023-03-30T09:59:34.682Z,100.00
2023-03-30T10:02:22.223Z,100.00
2023-03-30T10:05:00.641Z,100.00
2023-03-30T10:07:40.997Z,100.00
2023-03-30T10:10:36.481Z,100.00
2023-03-30T10:13:19.930Z,100.00
2023-03-30T10:15:55.531Z,100.00
2023-03-30T10:18:32.212Z,100.00
2023-03-30T10:21:10.970Z,100.00
2023-03-30T10:23:46.378Z,100.00
2023-03-30T10:26:21.994Z,100.00
2023-03-30T10:29:00.820Z,100.00
2023-03-30T10:31:37.593Z,100.00
2023-03-30T10:34:18.517Z,100.00
2023-03-30T10:36:54.849Z,100.00
2023-03-30T10:39:34.348Z,100.00
2023-03-30T10:42:09.381Z,100.00
2023-03-30T10:44:52.984Z,100.00
2023-03-30T10:48:03.344Z,100.00
2023-03-30T10:51:12.944Z,100.00
2023-03-30T10:53:57.449Z,100.00
2023-03-30T10:56:55.870Z,100.00
2023-03-30T10:59:36.586Z,100.00
2023-03-30T11:02:32.893Z,100.00
2023-03-30T11:05:22.891Z,100.00
2023-03-30T11:08:18.697Z,100.00
2023-03-30T11:10:57.885Z,100.00
2023-03-30T11:13:35.126Z,100.00
2023-03-30T11:16:21.958Z,100.00
2023-03-30T11:19:04.958Z,100.00
2023-03-30T11:22:03.562Z,100.00
2023-03-30T11:24:37.147Z,100.00
2023-03-30T11:27:16.001Z,100.00
2023-03-30T11:30:20.907Z,100.00
2023-03-30T11:33:31.064Z,100.00
2023-03-30T11:36:38.238Z,100.00
2023-03-30T11:39:31.146Z,100.00
2023-03-30T11:41:59.448Z,100.00
2023-03-30T11:44:34.115Z,100.00
2023-03-30T11:47:31.576Z,100.00
2023-03-30T11:50:45.709Z,100.00
2023-03-30T11:53:55.688Z,100.00
2023-03-30T11:56:53.438Z,100.00
2023-03-30T11:59:45.256Z,100.00
2023-03-30T12:02:51.204Z,100.00
2023-03-30T12:05:49.758Z,100.00
2023-03-30T12:08:44.176Z,100.00
2023-03-30T12:11:59.125Z,100.00
2023-03-30T12:14:46.192Z,100.00
2023-03-30T12:17:46.569Z,100.00
2023-03-30T12:20:56.243Z,100.00
2023-03-30T12:24:07.248Z,100.00
2023-03-30T12:47:14.375Z,100.00
2023-03-30T12:50:15.673Z,100.00
2023-03-30T12:53:16.470Z,100.00
2023-03-30T12:55:59.862Z,100.00
2023-03-30T12:58:59.620Z,100.00
2023-03-30T13:02:10.177Z,100.00
2023-03-30T13:04:46.890Z,100.00
2023-03-30T13:07:29.512Z,100.00
2023-03-30T13:10:07.591Z,100.00
2023-03-30T13:12:46.069Z,100.00
2023-03-30T13:15:43.086Z,100.00
2023-03-30T13:18:33.511Z,100.00
2023-03-30T13:21:27.707Z,100.00
2023-03-30T13:24:08.598Z,100.00
2023-03-30T13:26:45.593Z,100.00
2023-03-30T13:29:19.121Z,100.00
2023-03-30T13:32:39.394Z,100.00
2023-03-30T13:35:48.856Z,100.00
2023-03-30T13:38:42.942Z,100.00
2023-03-30T13:41:44.465Z,100.00
2023-03-30T13:44:42.356Z,100.00
2023-03-30T13:48:00.750Z,100.00
2023-03-30T13:50:35.618Z,100.00
2023-03-30T13:53:14.607Z,100.00
2023-03-30T13:55:50.648Z,100.00
2023-03-30T13:58:30.735Z,100.00
2023-03-30T14:01:14.799Z,100.00
2023-03-30T14:03:58.860Z,100.00
2023-03-30T14:06:35.666Z,100.00
2023-03-30T14:09:12.760Z,100.00
2023-03-30T14:11:50.024Z,100.00
2023-03-30T14:14:36.551Z,100.00
2023-03-30T14:17:23.284Z,100.00
2023-03-30T14:20:41.436Z,100.00
2023-03-30T14:23:40.772Z,100.00
2023-03-30T14:26:28.853Z,100.00
2023-03-30T14:29:11.271Z,100.00
2023-03-30T14:31:56.813Z,100.00
2023-03-30T14:34:32.636Z,100.00
2023-03-30T14:37:11.403Z,100.00
2023-03-30T14:39:51.514Z,100.00
2023-03-30T14:42:27.469Z,100.00
2023-03-30T14:45:01.063Z,100.00
2023-03-30T14:47:34.554Z,100.00
2023-03-30T14:50:09.651Z,100.00
2023-03-30T14:52:47.176Z,100.00
2023-03-30T14:55:25.558Z,100.00
2023-03-30T14:57:58.857Z,100.00
2023-03-30T15:00:32.003Z,100.00
2023-03-30T15:03:06.509Z,100.00
2023-03-30T15:05:42.999Z,100.00
2023-03-30T15:08:26.170Z,100.00
2023-03-30T15:11:05.025Z,100.00
2023-03-30T15:13:41.883Z,100.00
2023-03-30T15:16:19.258Z,100.00
2023-03-30T15:18:54.760Z,100.00
2023-03-30T15:21:27.895Z,100.00
2023-03-30T15:24:01.503Z,100.00
2023-03-30T15:26:35.260Z,100.00
2023-03-30T15:29:08.997Z,100.00
2023-03-30T15:31:44.713Z,100.00
2023-03-30T15:34:19.202Z,100.00
2023-03-30T15:36:57.116Z,100.00
2023-03-30T15:39:34.891Z,100.00
2023-03-30T15:42:12.043Z,100.00
2023-03-30T15:44:44.832Z,100.00
2023-03-30T15:47:20.215Z,100.00
2023-03-30T15:49:54.215Z,100.00
2023-03-30T15:52:37.093Z,100.00
2023-03-30T15:55:25.775Z,100.00
2023-03-30T15:57:59.919Z,100.00
2023-03-30T16:00:36.027Z,100.00
2023-03-30T16:03:13.915Z,100.00
2023-03-30T16:05:47.303Z,100.00
2023-03-30T16:08:20.269Z,100.00
2023-03-30T16:10:53.938Z,100.00
2023-03-30T16:13:28.068Z,100.00
2023-03-30T16:16:01.074Z,100.00
2023-03-30T16:18:35.624Z,100.00
2023-03-30T16:21:11.077Z,100.00
2023-03-30T16:23:44.561Z,100.00
2023-03-30T16:26:17.577Z,100.00
2023-03-30T16:28:52.701Z,100.00
2023-03-30T16:31:26.125Z,100.00
2023-03-30T16:33:59.151Z,100.00
2023-03-30T16:36:32.172Z,100.00
2023-03-30T16:39:06.862Z,100.00
2023-03-30T16:41:39.892Z,100.00
2023-03-30T16:44:13.138Z,100.00
2023-03-30T16:46:46.994Z,100.00
2023-03-30T16:49:24.729Z,100.00
2023-03-30T16:51:58.233Z,100.00
2023-03-30T16:54:33.004Z,100.00
2023-03-30T16:57:09.394Z,100.00
2023-03-30T16:59:42.802Z,100.00
2023-03-30T17:02:18.878Z,100.00
2023-03-30T17:04:50.795Z,100.00
2023-03-30T17:07:23.942Z,100.00
2023-03-30T17:09:57.041Z,100.00
2023-03-30T17:12:30.658Z,100.00
2023-03-30T17:15:04.045Z,100.00
2023-03-30T17:17:37.768Z,100.00
2023-03-30T17:20:41.620Z,100.00
2023-03-30T17:23:14.240Z,100.00
2023-03-30T17:25:49.534Z,100.00
2023-03-30T17:28:30.072Z,100.00
2023-03-30T17:31:07.127Z,100.00
2023-03-30T17:33:41.360Z,100.00
2023-03-30T17:36:23.005Z,100.00
2023-03-30T17:38:57.150Z,100.00
2023-03-30T17:41:29.826Z,100.00
2023-03-30T17:44:02.944Z,100.00
2023-03-30T17:46:36.528Z,100.00
2023-03-30T17:49:14.182Z,100.00
2023-03-30T17:51:47.495Z,100.00
2023-03-30T17:54:21.440Z,100.00
2023-03-30T17:56:54.987Z,100.00
2023-03-30T17:59:28.260Z,100.00
2023-03-30T18:02:01.198Z,100.00
2023-03-30T18:04:35.547Z,100.00
2023-03-30T18:07:09.694Z,100.00
2023-03-30T18:09:42.805Z,100.00
2023-03-30T18:12:16.541Z,100.00
2023-03-30T18:14:49.274Z,100.00
2023-03-30T18:17:23.887Z,100.00
2023-03-30T18:19:56.603Z,100.00
2023-03-30T18:22:29.480Z,100.00
2023-03-30T18:25:02.350Z,100.00
2023-03-30T18:27:36.272Z,100.00
2023-03-30T18:30:21.131Z,100.00
2023-03-30T18:32:53.868Z,100.00
2023-03-30T18:35:30.547Z,100.00
2023-03-30T18:38:04.803Z,100.00
2023-03-30T18:40:38.870Z,100.00
2023-03-30T18:43:11.608Z,100.00
2023-03-30T18:45:48.262Z,100.00
2023-03-30T18:48:23.023Z,100.00
2023-03-30T18:50:57.732Z,100.00
2023-03-30T18:53:31.108Z,100.00
2023-03-30T18:56:04.945Z,100.00
2023-03-30T18:58:40.128Z,100.00
2023-03-30T19:01:15.466Z,100.00
2023-03-30T19:03:49.770Z,100.00
2023-03-30T19:06:24.291Z,100.00
2023-03-30T19:08:57.839Z,100.00
2023-03-30T19:11:30.813Z,100.00
2023-03-30T19:14:04.862Z,100.00
2023-03-30T19:16:37.876Z,100.00
2023-03-30T19:19:14.947Z,100.00
2023-03-30T19:21:47.323Z,100.00
2023-03-30T19:24:20.137Z,100.00
2023-03-30T19:26:52.832Z,100.00
2023-03-30T19:29:26.339Z,100.00
2023-03-30T19:32:00.253Z,100.00
2023-03-30T19:34:33.227Z,100.00
2023-03-30T19:37:06.957Z,100.00
2023-03-30T19:39:39.799Z,100.00
2023-03-30T19:42:12.907Z,100.00
2023-03-30T19:44:46.252Z,100.00
2023-03-30T19:47:19.468Z,100.00
2023-03-30T19:49:52.679Z,100.00
2023-03-30T19:52:26.829Z,100.00
2023-03-30T19:55:00.702Z,100.00
2023-03-30T19:57:34.020Z,100.00
2023-03-30T20:00:16.141Z,100.00
2023-03-30T20:02:55.349Z,100.00
2023-03-30T20:05:28.462Z,100.00
2023-03-30T20:08:07.967Z,100.00
2023-03-30T20:10:37.342Z,100.00
2023-03-30T20:13:10.576Z,100.00
2023-03-30T20:15:45.235Z,100.00
2023-03-30T20:18:20.859Z,100.00
2023-03-30T20:20:53.745Z,100.00
2023-03-30T20:23:27.373Z,100.00
2023-03-30T20:26:03.069Z,100.00
2023-03-30T20:28:36.518Z,100.00
2023-03-30T20:31:10.106Z,100.00
2023-03-30T20:33:43.354Z,100.00
2023-03-30T20:36:16.770Z,100.00
2023-03-30T20:38:50.516Z,100.00
2023-03-30T20:41:23.471Z,100.00
2023-03-30T20:43:57.622Z,100.00
2023-03-30T20:46:32.485Z,100.00
2023-03-30T20:49:06.648Z,100.00
2023-03-30T20:51:42.249Z,100.00
2023-03-30T20:54:15.198Z,100.00
2023-03-30T20:56:48.051Z,100.00
2023-03-30T20:59:21.474Z,100.00
2023-03-30T21:01:56.604Z,100.00
2023-03-30T21:04:29.398Z,100.00
2023-03-30T21:07:02.609Z,100.00
2023-03-30T21:09:35.906Z,100.00
2023-03-30T21:12:10.021Z,100.00
2023-03-30T21:14:45.326Z,100.00
2023-03-30T21:17:18.955Z,100.00
2023-03-30T21:19:51.644Z,100.00
2023-03-30T21:22:25.254Z,100.00
2023-03-30T21:24:58.211Z,100.00
2023-03-30T21:27:31.116Z,100.00
2023-03-30T21:30:04.673Z,100.00
2023-03-30T21:32:37.771Z,100.00
2023-03-30T21:35:10.745Z,100.00
2023-03-30T21:37:44.117Z,100.00
2023-03-30T21:40:16.925Z,100.00
2023-03-30T21:42:49.792Z,100.00
2023-03-30T21:45:24.887Z,100.00
2023-03-30T21:47:57.712Z,100.00
2023-03-30T21:50:30.625Z,100.00
2023-03-30T21:53:03.344Z,100.00
2023-03-30T21:55:36.810Z,100.00
2023-03-30T21:58:09.612Z,100.00
2023-03-30T22:00:46.590Z,100.00
2023-03-30T22:03:20.625Z,100.00
2023-03-30T22:05:53.288Z,100.00
2023-03-30T22:08:26.104Z,100.00
2023-03-30T22:11:12.635Z,100.00
2023-03-30T22:13:48.446Z,100.00
2023-03-30T22:16:27.876Z,100.00
2023-03-30T22:19:01.257Z,100.00
2023-03-30T22:21:37.578Z,100.00
2023-03-30T22:24:12.157Z,100.00
2023-03-30T22:26:46.069Z,100.00
2023-03-30T22:29:20.570Z,100.00
2023-03-30T22:31:54.955Z,100.00
2023-03-30T22:34:28.916Z,100.00
2023-03-30T22:37:02.755Z,100.00
2023-03-30T22:39:38.104Z,100.00
2023-03-30T22:42:11.616Z,100.00
2023-03-30T22:44:44.847Z,100.00
2023-03-30T22:47:17.719Z,100.00
2023-03-30T22:49:50.833Z,100.00
2023-03-30T22:52:26.866Z,100.00
2023-03-30T22:54:59.546Z,100.00
2023-03-30T22:57:33.063Z,100.00
2023-03-30T23:00:09.277Z,100.00
2023-03-30T23:02:42.973Z,100.00
2023-03-30T23:05:16.030Z,100.00
2023-03-30T23:07:50.931Z,100.00
2023-03-30T23:10:25.777Z,100.00
2023-03-30T23:12:59.318Z,100.00
2023-03-30T23:15:32.572Z,100.00
2023-03-30T23:18:06.246Z,100.00
2023-03-30T23:20:39.340Z,100.00
2023-03-30T23:23:12.240Z,100.00
2023-03-30T23:25:52.877Z,100.00
2023-03-30T23:28:25.733Z,100.00
2023-03-30T23:30:59.276Z,100.00
2023-03-30T23:33:33.044Z,100.00
2023-03-30T23:36:07.595Z,100.00
2023-03-30T23:38:41.896Z,100.00
2023-03-30T23:41:20.859Z,100.00
2023-03-30T23:43:54.214Z,100.00
2023-03-30T23:46:27.281Z,100.00
2023-03-30T23:49:00.635Z,100.00
2023-03-30T23:51:33.885Z,100.00
2023-03-30T23:54:07.440Z,100.00
2023-03-30T23:56:44.915Z,100.00
2023-03-30T23:59:18.930Z,100.00
